Time;durP1;ratioP1;P1;durP2;ratioP2;P2;SDS_P1;SDS_P2;PMS_P1;PMS_P2;Temp;Humidity;BMP_temperature;BMP_pressure;BME280_temperature;BME280_humidity;BME280_pressure;Samples;Min_cycle;Max_cycle;Signal;HPM_P1;HPM_P2
2022/04/15 00:02:10;;;;;;;29.42;17.90;;;;;;;9.30;78.20;102435.00;5005204;28;20071;-66
2022/04/15 00:04:36;;;;;;;27.20;17.17;;;;;;;9.34;78.31;102443.53;5006673;28;20597;-66
2022/04/15 00:07:02;;;;;;;24.52;16.30;;;;;;;9.36;78.51;102433.66;5006082;28;20114;-66
2022/04/15 00:09:28;;;;;;;24.27;16.08;;;;;;;9.42;78.24;102435.81;5008547;28;20026;-66
2022/04/15 00:11:55;;;;;;;24.83;15.18;;;;;;;9.44;78.54;102436.53;5008617;28;20040;-66
2022/04/15 00:14:21;;;;;;;21.70;14.98;;;;;;;9.46;78.22;102433.75;5009526;28;20524;-66
2022/04/15 00:16:47;;;;;;;14.65;11.50;;;;;;;9.40;78.31;102423.63;5012164;28;20056;-66
2022/04/15 00:19:13;;;;;;;13.85;9.80;;;;;;;9.38;77.98;102434.38;5007682;28;20030;-66
2022/04/15 00:21:39;;;;;;;13.90;10.13;;;;;;;9.37;77.91;102431.84;5009271;28;20113;-66
2022/04/15 00:24:05;;;;;;;11.80;8.93;;;;;;;9.30;77.83;102431.50;5009064;28;20117;-66
2022/04/15 00:26:30;;;;;;;18.42;12.43;;;;;;;9.27;77.74;102432.59;5011946;28;20068;-66
2022/04/15 00:28:56;;;;;;;14.77;11.15;;;;;;;9.31;78.06;102441.97;5011063;28;20064;-66
2022/04/15 00:31:21;;;;;;;13.63;10.38;;;;;;;9.17;78.12;102436.09;5005144;28;20045;-66
2022/04/15 00:33:47;;;;;;;11.02;8.55;;;;;;;9.12;77.98;102438.25;5008817;28;20038;-66
2022/04/15 00:36:12;;;;;;;13.93;10.13;;;;;;;9.13;77.84;102434.66;5010133;28;20079;-66
2022/04/15 00:38:37;;;;;;;11.55;7.38;;;;;;;9.06;77.57;102449.34;5007022;28;20084;-66
2022/04/15 00:41:02;;;;;;;6.95;5.47;;;;;;;9.00;77.31;102451.53;5009696;28;20076;-66
2022/04/15 00:43:28;;;;;;;6.22;4.57;;;;;;;8.81;76.63;102453.91;5006282;28;20507;-66
2022/04/15 00:45:54;;;;;;;6.53;4.68;;;;;;;8.70;76.41;102451.28;5012085;28;20037;-66
2022/04/15 00:48:19;;;;;;;3.85;2.92;;;;;;;8.55;76.24;102457.72;5007727;28;20029;-66
2022/04/15 00:50:45;;;;;;;9.95;6.75;;;;;;;8.58;76.45;102454.84;5008814;28;20025;-67
2022/04/15 00:53:12;;;;;;;3.88;3.20;;;;;;;8.45;76.64;102456.75;5008895;28;20053;-66
2022/04/15 00:55:40;;;;;;;6.03;3.28;;;;;;;8.42;76.88;102459.66;5008608;28;20514;-66
2022/04/15 00:58:06;;;;;;;5.63;4.68;;;;;;;8.38;76.91;102465.19;5008684;28;20563;-66
2022/04/15 01:00:36;;;;;;;7.90;6.13;;;;;;;8.41;77.01;102461.44;5009290;28;20478;-66
2022/04/15 01:03:06;;;;;;;9.80;6.70;;;;;;;8.40;77.60;102461.56;5012045;28;20029;-66
2022/04/15 01:05:31;;;;;;;13.23;8.77;;;;;;;8.38;77.28;102454.59;5008269;28;20501;-66
2022/04/15 01:07:57;;;;;;;7.35;5.38;;;;;;;8.28;77.37;102456.19;5007799;28;20029;-66
2022/04/15 01:10:25;;;;;;;4.93;3.80;;;;;;;8.16;77.46;102457.13;5015061;28;20026;-66
2022/04/15 01:12:56;;;;;;;4.03;3.50;;;;;;;8.06;77.58;102462.25;5016333;28;20095;-66
2022/04/15 01:15:24;;;;;;;5.30;3.90;;;;;;;8.01;77.46;102466.19;5013148;28;20041;-66
2022/04/15 01:17:50;;;;;;;7.32;5.68;;;;;;;7.98;78.03;102461.13;5010289;28;20821;-66
2022/04/15 01:20:15;;;;;;;11.70;7.88;;;;;;;7.93;78.06;102458.84;5008275;28;20037;-66
2022/04/15 01:22:46;;;;;;;13.57;9.68;;;;;;;7.97;78.82;102464.75;5009288;28;20111;-66
2022/04/15 01:25:14;;;;;;;12.02;9.73;;;;;;;7.95;79.16;102471.94;5008281;28;20080;-67
2022/04/15 01:27:44;;;;;;;14.75;10.93;;;;;;;7.96;79.30;102468.34;5008965;28;20116;-66
2022/04/15 01:30:13;;;;;;;14.23;9.70;;;;;;;7.89;79.56;102472.41;5011276;28;20090;-66
2022/04/15 01:32:38;;;;;;;17.40;11.20;;;;;;;8.00;79.63;102472.44;5015132;28;20843;-66
2022/04/15 01:35:06;;;;;;;8.82;5.35;;;;;;;8.03;79.76;102480.16;5008884;28;20018;-66
2022/04/15 01:37:32;;;;;;;6.72;4.28;;;;;;;8.06;79.59;102472.00;5010220;28;20025;-66
2022/04/15 01:39:57;;;;;;;3.95;3.38;;;;;;;8.03;79.07;102470.41;5009321;28;20067;-66
2022/04/15 01:42:23;;;;;;;8.30;3.58;;;;;;;8.08;78.81;102475.34;5013616;28;20084;-66
2022/04/15 01:44:48;;;;;;;5.70;4.00;;;;;;;8.02;78.81;102470.53;5012014;28;20065;-66
2022/04/15 01:47:16;;;;;;;9.68;5.63;;;;;;;8.11;79.03;102479.59;5009299;28;20064;-66
2022/04/15 01:49:42;;;;;;;15.48;8.10;;;;;;;8.11;79.32;102480.44;5005417;28;20018;-66
2022/04/15 01:52:07;;;;;;;11.20;6.90;;;;;;;8.13;79.20;102482.97;5009462;28;20538;-66
2022/04/15 01:54:33;;;;;;;10.40;6.32;;;;;;;8.14;79.06;102482.88;5005550;28;20034;-66
2022/04/15 01:56:58;;;;;;;10.23;7.18;;;;;;;8.14;79.04;102492.59;5002908;28;20087;-66
2022/04/15 01:59:24;;;;;;;9.25;5.35;;;;;;;8.12;79.28;102484.78;4997884;28;20611;-66
2022/04/15 02:01:54;;;;;;;7.10;5.65;;;;;;;8.08;79.05;102484.13;4997795;28;20037;-66
2022/04/15 02:04:20;;;;;;;5.88;5.22;;;;;;;8.02;79.17;102483.75;4999028;28;20077;-66
2022/04/15 02:06:45;;;;;;;10.88;7.57;;;;;;;7.95;79.36;102485.19;5000046;28;20404;-66
2022/04/15 02:09:11;;;;;;;10.52;7.38;;;;;;;7.92;79.52;102488.06;4994677;28;20026;-66
2022/04/15 02:11:36;;;;;;;10.45;6.95;;;;;;;7.79;79.26;102488.09;5008386;28;20029;-66
2022/04/15 02:14:01;;;;;;;11.25;6.65;;;;;;;7.67;79.15;102484.53;5008506;28;20044;-66
2022/04/15 02:16:26;;;;;;;12.32;6.22;;;;;;;7.55;78.97;102492.53;5007925;28;20038;-66
2022/04/15 02:18:52;;;;;;;10.25;6.93;;;;;;;7.45;79.04;102492.31;5005310;28;20034;-66
2022/04/15 02:21:17;;;;;;;8.85;5.70;;;;;;;7.41;79.54;102496.16;5006834;28;20041;-67
2022/04/15 02:23:42;;;;;;;8.00;5.78;;;;;;;7.39;80.01;102498.91;5013629;28;20022;-66
2022/04/15 02:26:07;;;;;;;7.03;4.72;;;;;;;7.34;80.25;102506.31;5011174;28;20067;-66
2022/04/15 02:28:33;;;;;;;5.43;4.72;;;;;;;7.33;80.40;102506.44;5006755;28;20397;-66
2022/04/15 02:30:58;;;;;;;5.45;4.80;;;;;;;7.24;80.72;102509.72;5004327;28;20023;-66
2022/04/15 02:33:23;;;;;;;6.78;3.85;;;;;;;7.14;80.70;102510.34;5010585;28;20374;-66
2022/04/15 02:35:49;;;;;;;5.03;4.07;;;;;;;7.06;80.38;102511.84;5009731;28;20041;-66
2022/04/15 02:38:15;;;;;;;7.63;4.47;;;;;;;6.97;80.54;102513.34;5005092;28;20026;-66
2022/04/15 02:40:41;;;;;;;6.88;4.85;;;;;;;6.91;80.44;102513.75;5005407;28;20482;-66
2022/04/15 02:43:06;;;;;;;9.35;5.80;;;;;;;6.93;80.87;102521.56;5010870;28;20032;-66
2022/04/15 02:45:32;;;;;;;7.85;5.32;;;;;;;7.03;80.89;102520.00;5009537;28;20022;-66
2022/04/15 02:47:57;;;;;;;7.30;4.75;;;;;;;7.08;81.10;102516.06;5006627;28;20033;-67
2022/04/15 02:50:23;;;;;;;6.80;5.00;;;;;;;7.11;81.05;102515.84;5006825;28;20079;-66
2022/04/15 02:52:49;;;;;;;8.52;5.15;;;;;;;7.15;81.15;102524.41;5006924;28;20468;-66
2022/04/15 02:55:15;;;;;;;8.15;5.60;;;;;;;7.14;81.02;102523.56;5006474;28;20053;-66
2022/04/15 02:57:40;;;;;;;7.40;5.63;;;;;;;7.08;80.86;102523.16;5007947;28;20119;-66
2022/04/15 03:00:07;;;;;;;11.90;7.65;;;;;;;7.09;81.25;102517.75;5011488;28;20139;-66
2022/04/15 03:02:32;;;;;;;10.43;5.88;;;;;;;7.08;81.18;102510.78;5009941;28;20029;-66
2022/04/15 03:04:58;;;;;;;8.65;6.07;;;;;;;7.08;81.06;102516.06;5007389;28;20030;-66
2022/04/15 03:07:23;;;;;;;3.80;3.35;;;;;;;7.02;80.90;102519.16;5003993;28;20036;-66
2022/04/15 03:09:48;;;;;;;7.70;4.72;;;;;;;6.99;80.26;102516.72;5010727;28;20539;-66
2022/04/15 03:12:14;;;;;;;11.43;6.93;;;;;;;6.95;80.32;102517.03;5009795;28;20040;-66
2022/04/15 03:14:39;;;;;;;24.08;13.98;;;;;;;7.06;80.96;102517.97;5008096;28;20021;-66
2022/04/15 03:17:05;;;;;;;31.02;17.42;;;;;;;7.21;81.54;102521.34;5007535;28;20108;-65
2022/04/15 03:19:31;;;;;;;33.83;18.02;;;;;;;7.28;82.00;102524.41;5005832;28;20033;-66
2022/04/15 03:21:56;;;;;;;34.50;21.73;;;;;;;7.39;82.77;102521.84;5009430;28;20045;-66
2022/04/15 03:24:21;;;;;;;45.97;23.77;;;;;;;7.52;83.30;102532.38;5011877;28;20034;-66
2022/04/15 03:26:46;;;;;;;48.45;25.40;;;;;;;7.65;83.83;102530.56;5009136;28;20057;-66
2022/04/15 03:29:12;;;;;;;54.78;26.17;;;;;;;7.76;84.66;102530.63;5004703;28;20034;-66
2022/04/15 03:31:37;;;;;;;67.78;26.70;;;;;;;7.88;84.87;102536.84;5010035;28;20029;-67
2022/04/15 03:34:02;;;;;;;74.80;25.70;;;;;;;7.94;84.95;102534.59;5006412;28;20485;-66
2022/04/15 03:36:28;;;;;;;62.67;24.92;;;;;;;8.02;85.32;102540.16;5005715;28;20040;-66
2022/04/15 03:38:53;;;;;;;62.65;23.83;;;;;;;8.06;85.17;102535.47;5005372;28;20034;-66
2022/04/15 03:41:19;;;;;;;71.63;23.33;;;;;;;8.09;85.27;102535.25;5009312;28;20037;-66
2022/04/15 03:43:44;;;;;;;104.45;23.13;;;;;;;8.10;85.04;102542.28;5009482;28;20068;-66
2022/04/15 03:46:09;;;;;;;89.75;23.08;;;;;;;8.08;85.60;102529.13;5011070;28;20618;-66
2022/04/15 03:48:35;;;;;;;81.57;21.48;;;;;;;8.14;85.59;102538.44;5001404;28;20053;-66
2022/04/15 03:51:00;;;;;;;75.05;20.85;;;;;;;8.14;85.38;102537.59;5006067;28;20013;-66
2022/04/15 03:53:25;;;;;;;61.53;20.10;;;;;;;8.14;85.84;102541.09;5007105;28;20452;-66
2022/04/15 03:55:51;;;;;;;64.75;19.35;;;;;;;8.15;85.59;102544.56;5011328;28;20030;-66
2022/04/15 03:58:16;;;;;;;42.35;17.92;;;;;;;8.13;85.72;102546.50;5005196;28;20103;-66
2022/04/15 04:00:43;;;;;;;51.33;18.92;;;;;;;8.14;85.64;102548.19;5009663;28;20034;-66
2022/04/15 04:03:09;;;;;;;48.38;18.48;;;;;;;8.17;85.77;102561.19;5012490;28;20038;-66
2022/04/15 04:05:34;;;;;;;36.30;18.55;;;;;;;8.18;85.60;102555.78;5005761;28;20040;-66
2022/04/15 04:07:59;;;;;;;34.40;19.67;;;;;;;8.17;85.77;102548.78;5003062;28;20030;-66
2022/04/15 04:10:25;;;;;;;31.45;20.25;;;;;;;8.24;85.71;102565.06;5006320;28;20120;-66
2022/04/15 04:12:51;;;;;;;29.35;20.25;;;;;;;8.29;85.87;102558.47;5013428;28;20025;-66
2022/04/15 04:15:17;;;;;;;33.00;20.90;;;;;;;8.29;85.86;102563.75;5005424;28;20048;-66
2022/04/15 04:17:42;;;;;;;34.70;20.25;;;;;;;8.31;86.07;102569.78;5006002;28;20061;-66
2022/04/15 04:20:10;;;;;;;33.50;19.58;;;;;;;8.30;85.42;102568.09;5005158;28;20076;-66
2022/04/15 04:22:36;;;;;;;30.73;19.85;;;;;;;8.33;85.60;102577.59;5016423;28;20029;-67
2022/04/15 04:25:03;;;;;;;23.27;18.08;;;;;;;8.32;85.63;102568.81;5007265;28;20092;-66
2022/04/15 04:27:30;;;;;;;24.30;18.42;;;;;;;8.31;85.79;102566.28;5011091;28;20036;-66
2022/04/15 04:29:55;;;;;;;27.40;18.00;;;;;;;8.34;85.67;102580.16;5006875;28;20025;-66
2022/04/15 04:32:21;;;;;;;25.60;18.38;;;;;;;8.34;85.67;102574.03;5009148;28;20096;-66
2022/04/15 04:34:47;;;;;;;27.45;18.77;;;;;;;8.34;85.93;102577.53;5008035;28;20493;-66
2022/04/15 04:37:12;;;;;;;26.85;18.08;;;;;;;8.37;85.82;102577.28;5004876;28;20625;-66
2022/04/15 04:39:38;;;;;;;25.30;18.10;;;;;;;8.38;85.91;102581.66;5004994;28;20057;-66
2022/04/15 04:42:04;;;;;;;28.75;18.55;;;;;;;8.40;85.82;102584.19;5004947;28;20048;-66
2022/04/15 04:44:31;;;;;;;29.23;18.63;;;;;;;8.42;85.63;102589.38;5008890;28;20026;-66
2022/04/15 04:46:57;;;;;;;27.45;18.98;;;;;;;8.44;85.79;102585.66;5006131;28;20030;-66
2022/04/15 04:49:22;;;;;;;31.33;19.63;;;;;;;8.46;85.81;102596.13;5007398;28;20327;-66
2022/04/15 04:51:48;;;;;;;27.98;19.27;;;;;;;8.48;86.09;102597.69;5006958;28;20026;-66
2022/04/15 04:54:13;;;;;;;29.50;19.58;;;;;;;8.48;86.03;102584.47;5008163;28;20034;-66
2022/04/15 04:56:39;;;;;;;30.88;19.92;;;;;;;8.51;85.96;102596.63;5009481;28;20509;-65
2022/04/15 04:59:04;;;;;;;30.55;19.90;;;;;;;8.42;86.07;102584.06;5015339;28;20035;-66
2022/04/15 05:01:29;;;;;;;30.38;19.17;;;;;;;8.54;85.99;102602.53;5004628;28;20091;-67
2022/04/15 05:03:55;;;;;;;32.40;20.30;;;;;;;8.54;86.14;102601.69;5015100;28;20025;-66
2022/04/15 05:06:20;;;;;;;27.20;19.60;;;;;;;8.56;86.40;102603.25;5010617;28;20030;-66
2022/04/15 05:08:45;;;;;;;31.92;20.80;;;;;;;8.61;86.01;102609.03;5008093;28;20063;-67
2022/04/15 05:11:11;;;;;;;30.80;20.52;;;;;;;8.60;86.05;102606.50;5009451;28;20084;-67
2022/04/15 05:13:36;;;;;;;31.42;20.95;;;;;;;8.63;86.24;102611.59;5009313;28;20026;-66
2022/04/15 05:16:01;;;;;;;35.25;21.35;;;;;;;8.62;86.16;102607.25;5011137;28;20056;-67
2022/04/15 05:18:26;;;;;;;32.03;21.52;;;;;;;8.64;85.88;102614.13;5012224;28;20033;-67
2022/04/15 05:20:52;;;;;;;30.63;19.35;;;;;;;8.68;86.34;102617.41;5015009;28;20025;-67
2022/04/15 05:23:17;;;;;;;29.38;19.40;;;;;;;8.68;86.25;102617.41;5010158;28;20021;-67
2022/04/15 05:25:42;;;;;;;28.70;18.80;;;;;;;8.67;86.27;102624.50;5014520;28;20108;-66
2022/04/15 05:28:08;;;;;;;33.22;18.90;;;;;;;8.67;86.00;102632.44;5007757;28;20616;-66
2022/04/15 05:30:33;;;;;;;25.80;18.85;;;;;;;8.73;85.85;102636.44;5008217;28;20030;-67
2022/04/15 05:32:58;;;;;;;25.75;18.08;;;;;;;8.69;86.34;102627.03;5008379;28;20026;-66
2022/04/15 05:35:24;;;;;;;26.35;17.27;;;;;;;8.76;86.00;102636.22;5010899;28;20064;-66
2022/04/15 05:37:49;;;;;;;23.52;16.77;;;;;;;8.77;85.84;102637.91;5007253;28;20030;-66
2022/04/15 05:40:14;;;;;;;25.67;16.33;;;;;;;8.79;86.03;102638.63;5008618;28;20026;-67
2022/04/15 05:42:40;;;;;;;23.13;16.27;;;;;;;8.82;86.05;102645.50;5008081;28;20049;-67
2022/04/15 05:45:06;;;;;;;23.55;15.70;;;;;;;8.77;85.80;102645.00;5011131;28;20041;-67
2022/04/15 05:47:31;;;;;;;27.00;16.33;;;;;;;8.86;85.66;102650.44;5007417;28;20026;-66
2022/04/15 05:49:56;;;;;;;23.40;15.65;;;;;;;8.89;85.66;102666.09;5007753;28;20044;-67
2022/04/15 05:52:21;;;;;;;25.25;15.85;;;;;;;8.87;85.75;102657.44;5006604;28;20030;-67
2022/04/15 05:54:47;;;;;;;28.58;15.88;;;;;;;8.95;85.90;102664.81;5014035;28;20033;-67
2022/04/15 05:57:12;;;;;;;21.17;15.57;;;;;;;8.95;85.59;102672.75;5008688;28;20024;-67
2022/04/15 05:59:37;;;;;;;22.88;14.30;;;;;;;8.94;85.80;102671.06;5006989;28;20072;-67
2022/04/15 06:02:03;;;;;;;21.60;13.68;;;;;;;8.93;85.58;102670.22;5003888;28;20033;-67
2022/04/15 06:04:28;;;;;;;21.75;14.55;;;;;;;8.97;85.74;102670.84;5007489;28;20040;-67
2022/04/15 06:06:53;;;;;;;21.85;14.70;;;;;;;8.97;85.71;102665.56;5008747;28;20025;-67
2022/04/15 06:09:19;;;;;;;22.40;14.50;;;;;;;9.02;85.69;102679.31;5011454;28;20076;-67
2022/04/15 06:11:45;;;;;;;19.60;14.48;;;;;;;9.06;85.54;102680.75;5007384;28;20604;-67
2022/04/15 06:14:10;;;;;;;21.30;14.73;;;;;;;9.06;85.46;102685.22;5009268;28;20032;-67
2022/04/15 06:16:38;;;;;;;24.60;14.68;;;;;;;9.08;85.60;102678.00;5010734;28;20026;-66
2022/04/15 06:19:06;;;;;;;21.88;14.43;;;;;;;9.12;85.76;102692.69;5008075;28;20025;-66
2022/04/15 06:21:32;;;;;;;21.48;14.25;;;;;;;9.17;85.64;102698.50;5006817;28;20037;-66
2022/04/15 06:23:58;;;;;;;21.73;15.35;;;;;;;9.17;85.35;102693.19;5007760;28;21933;-67
2022/04/15 06:26:23;;;;;;;21.73;14.82;;;;;;;9.22;85.54;102696.31;5015087;28;20619;-67
2022/04/15 06:28:48;;;;;;;23.27;14.93;;;;;;;9.24;85.61;102692.59;5007211;28;20512;-67
2022/04/15 06:31:13;;;;;;;22.52;14.68;;;;;;;9.25;85.16;102690.78;5007161;28;20037;-67
2022/04/15 06:33:39;;;;;;;20.73;14.30;;;;;;;9.31;85.50;102690.34;5006822;28;20045;-67
2022/04/15 06:36:04;;;;;;;24.45;15.15;;;;;;;9.35;85.21;102701.56;5008861;28;20109;-67
2022/04/15 06:38:30;;;;;;;22.50;14.25;;;;;;;9.36;85.19;102698.78;5008796;28;20113;-67
2022/04/15 06:40:55;;;;;;;18.23;14.23;;;;;;;9.34;85.22;102708.69;5006774;28;20030;-67
2022/04/15 06:43:21;;;;;;;20.35;13.02;;;;;;;9.36;84.95;102717.34;5007343;28;20034;-67
2022/04/15 06:45:46;;;;;;;19.88;13.13;;;;;;;9.38;85.15;102715.44;5009942;28;20033;-67
2022/04/15 06:48:11;;;;;;;22.25;13.13;;;;;;;9.37;84.67;102715.53;5006657;28;20033;-67
2022/04/15 06:50:36;;;;;;;22.38;13.60;;;;;;;9.43;84.92;102715.06;5007274;28;20428;-67
2022/04/15 06:53:02;;;;;;;18.20;13.98;;;;;;;9.43;84.69;102715.06;5007742;28;20088;-66
2022/04/15 06:55:27;;;;;;;22.38;14.60;;;;;;;9.45;84.68;102721.94;5007312;28;20461;-66
2022/04/15 06:57:52;;;;;;;21.23;14.68;;;;;;;9.46;84.71;102726.28;5006661;28;20061;-67
2022/04/15 07:00:18;;;;;;;22.92;14.95;;;;;;;9.44;84.42;102719.41;5009784;28;20037;-67
2022/04/15 07:02:44;;;;;;;24.77;15.10;;;;;;;9.48;84.33;102724.34;5008195;28;20128;-66
2022/04/15 07:05:10;;;;;;;21.13;14.20;;;;;;;9.53;84.68;102726.66;5016174;28;20109;-67
2022/04/15 07:07:39;;;;;;;20.48;14.48;;;;;;;9.53;84.59;102727.50;5010164;28;20026;-67
2022/04/15 07:10:09;;;;;;;24.20;15.18;;;;;;;9.58;84.42;102729.81;5011847;28;20433;-67
2022/04/15 07:12:34;;;;;;;21.38;13.75;;;;;;;9.60;83.88;102738.50;5010809;28;20032;-67
2022/04/15 07:15:00;;;;;;;21.60;14.63;;;;;;;9.63;84.23;102728.50;5016011;28;20030;-66
2022/04/15 07:17:26;;;;;;;22.33;13.68;;;;;;;9.62;83.84;102748.03;5017711;28;20564;-66
2022/04/15 07:19:51;;;;;;;19.45;13.57;;;;;;;9.65;83.81;102743.47;5004783;28;20521;-66
2022/04/15 07:22:20;;;;;;;20.20;12.20;;;;;;;9.63;83.79;102744.41;5005688;28;20040;-66
2022/04/15 07:24:46;;;;;;;17.42;12.40;;;;;;;9.63;83.41;102739.13;5006063;28;20021;-66
2022/04/15 07:27:12;;;;;;;20.08;12.85;;;;;;;9.65;83.44;102739.00;5010600;28;20040;-66
2022/04/15 07:29:37;;;;;;;19.20;12.88;;;;;;;9.67;83.51;102745.03;5003642;28;20424;-67
2022/04/15 07:32:03;;;;;;;23.80;14.93;;;;;;;9.68;83.56;102748.53;5004883;28;20088;-66
2022/04/15 07:34:29;;;;;;;26.35;14.70;;;;;;;9.61;83.63;102749.00;5004841;28;20048;-66
2022/04/15 07:36:54;;;;;;;24.80;14.95;;;;;;;9.63;83.27;102755.03;5006954;28;20025;-67
2022/04/15 07:39:21;;;;;;;26.92;13.75;;;;;;;9.66;83.39;102753.09;5006011;28;20042;-67
2022/04/15 07:41:47;;;;;;;20.27;13.20;;;;;;;9.66;83.09;102755.75;5005729;28;20104;-67
2022/04/15 07:44:14;;;;;;;21.58;13.07;;;;;;;9.72;83.08;102753.47;5006885;28;20030;-67
2022/04/15 07:46:41;;;;;;;20.40;13.05;;;;;;;9.75;82.64;102761.19;5014070;28;20034;-67
2022/04/15 07:49:07;;;;;;;17.55;11.80;;;;;;;9.79;82.87;102756.50;5006144;28;20151;-67
2022/04/15 07:51:33;;;;;;;18.10;12.20;;;;;;;9.89;82.75;102754.84;5012511;28;20525;-67
2022/04/15 07:53:58;;;;;;;19.08;11.23;;;;;;;9.96;82.63;102763.16;5011557;28;20037;-67
2022/04/15 07:56:24;;;;;;;12.70;9.88;;;;;;;10.04;81.60;102758.94;5016599;28;20056;-67
2022/04/15 07:58:50;;;;;;;13.32;9.48;;;;;;;10.08;81.32;102752.41;5010742;28;20374;-67
2022/04/15 08:01:16;;;;;;;15.27;9.25;;;;;;;10.16;80.74;102757.16;5005421;28;20042;-67
2022/04/15 08:03:41;;;;;;;15.38;9.50;;;;;;;10.27;80.65;102759.81;5005997;28;20068;-67
2022/04/15 08:06:07;;;;;;;14.45;9.40;;;;;;;10.39;80.42;102764.13;5006211;28;20069;-66
2022/04/15 08:08:32;;;;;;;14.70;9.45;;;;;;;10.48;79.58;102758.13;5002832;28;20053;-67
2022/04/15 08:10:58;;;;;;;13.48;9.52;;;;;;;10.60;79.68;102756.28;5008215;28;20044;-67
2022/04/15 08:13:23;;;;;;;13.55;9.40;;;;;;;10.72;79.06;102752.63;5005542;28;20482;-67
2022/04/15 08:15:53;;;;;;;14.15;9.15;;;;;;;10.81;78.93;102759.00;5006116;28;20057;-68
2022/04/15 08:18:22;;;;;;;9.85;7.35;;;;;;;10.88;77.72;102765.50;5007829;28;20025;-68
2022/04/15 08:20:48;;;;;;;12.25;7.60;;;;;;;10.92;77.29;102763.44;5010951;28;20040;-68
2022/04/15 08:23:14;;;;;;;10.55;7.85;;;;;;;10.92;76.82;102760.78;5016268;28;20112;-67
2022/04/15 08:25:39;;;;;;;12.45;7.50;;;;;;;10.98;76.19;102762.94;5005146;28;20080;-68
2022/04/15 08:28:05;;;;;;;10.25;7.32;;;;;;;11.03;76.05;102763.41;5014892;28;20059;-68
2022/04/15 08:30:33;;;;;;;10.35;7.32;;;;;;;11.07;75.63;102768.34;5007571;28;20080;-68
2022/04/15 08:32:59;;;;;;;10.98;6.95;;;;;;;11.19;75.78;102774.47;5009854;28;20022;-68
2022/04/15 08:35:26;;;;;;;11.70;7.22;;;;;;;11.22;75.48;102758.25;5010191;28;20033;-68
2022/04/15 08:37:53;;;;;;;8.77;6.32;;;;;;;11.35;75.18;102771.38;5008037;28;20040;-68
2022/04/15 08:40:18;;;;;;;8.32;6.95;;;;;;;11.44;74.91;102770.59;5014261;28;20030;-67
2022/04/15 08:42:44;;;;;;;8.43;6.57;;;;;;;11.51;74.27;102768.25;5011176;28;20533;-68
2022/04/15 08:45:12;;;;;;;9.05;6.55;;;;;;;11.54;74.08;102770.66;5011172;28;20659;-68
2022/04/15 08:47:38;;;;;;;10.67;6.07;;;;;;;11.69;73.64;102782.69;5012265;28;20045;-68
2022/04/15 08:50:10;;;;;;;11.15;6.65;;;;;;;11.87;73.27;102781.16;5008794;28;20308;-68
2022/04/15 08:52:36;;;;;;;8.15;6.35;;;;;;;12.07;72.35;102784.75;5007202;28;20068;-68
2022/04/15 08:55:02;;;;;;;9.82;6.25;;;;;;;12.25;72.25;102788.50;5011304;28;20092;-67
2022/04/15 08:57:28;;;;;;;8.43;6.53;;;;;;;12.38;71.49;102783.75;5020181;28;20017;-68
2022/04/15 08:59:54;;;;;;;9.93;5.45;;;;;;;12.45;70.81;102781.44;5011510;28;20526;-68
2022/04/15 09:02:33;;;;;;;8.45;6.20;;;;;;;12.53;69.98;102786.06;5009295;28;20033;-68
2022/04/15 09:04:59;;;;;;;9.50;6.38;;;;;;;12.59;69.52;102790.84;5009444;28;20535;-67
2022/04/15 09:07:29;;;;;;;8.20;6.03;;;;;;;12.62;68.54;102793.25;5010258;28;20037;-68
2022/04/15 09:09:59;;;;;;;7.05;6.32;;;;;;;12.66;68.11;102799.97;5008910;28;20021;-68
2022/04/15 09:12:28;;;;;;;9.35;6.60;;;;;;;12.68;68.75;102798.88;5009368;28;20026;-67
2022/04/15 09:14:58;;;;;;;8.80;5.90;;;;;;;12.66;67.71;102795.50;5006744;28;20026;-67
2022/04/15 09:17:26;;;;;;;6.97;5.95;;;;;;;12.65;67.57;102792.97;5008820;28;20377;-68
2022/04/15 09:19:54;;;;;;;13.15;6.10;;;;;;;12.85;67.84;102797.38;5008978;28;20374;-68
2022/04/15 09:22:20;;;;;;;8.88;5.57;;;;;;;13.04;67.39;102791.22;5027285;28;20030;-68
2022/04/15 09:24:46;;;;;;;8.07;5.50;;;;;;;13.30;67.20;102799.56;5018659;28;20041;-69
2022/04/15 09:27:12;;;;;;;7.57;5.05;;;;;;;13.39;66.59;102793.38;5015974;28;20037;-68
2022/04/15 09:29:40;;;;;;;12.13;5.90;;;;;;;13.45;65.63;102800.81;5016712;28;20076;-68
2022/04/15 09:32:07;;;;;;;9.37;5.80;;;;;;;13.59;65.44;102802.22;5016880;28;20030;-68
2022/04/15 09:34:32;;;;;;;6.30;5.32;;;;;;;13.71;64.81;102803.75;5016184;28;20131;-68
2022/04/15 09:36:58;;;;;;;7.72;5.97;;;;;;;13.75;64.72;102807.81;5010020;28;20564;-68
2022/04/15 09:39:23;;;;;;;8.18;5.22;;;;;;;13.72;64.04;102808.09;5005396;28;20100;-68
2022/04/15 09:41:56;;;;;;;6.82;5.60;;;;;;;13.61;64.06;102814.44;5017697;28;20044;-68
2022/04/15 09:44:22;;;;;;;10.35;5.57;;;;;;;13.48;63.66;102813.88;5008818;28;20045;-68
2022/04/15 09:46:51;;;;;;;6.45;5.63;;;;;;;13.45;63.64;102819.50;5008235;28;20141;-68
2022/04/15 09:49:16;;;;;;;;;;;;;;;13.59;63.75;102824.41;5005784;28;20030;-68
2022/04/15 09:51:52;;;;;;;7.93;5.50;;;;;;;13.51;63.51;102818.94;5012928;28;19909;-69
2022/04/15 09:54:27;;;;;;;9.32;5.63;;;;;;;13.45;63.33;102815.97;5017162;28;20018;-68
2022/04/15 09:56:57;;;;;;;7.47;6.10;;;;;;;13.65;63.29;102815.00;5014856;28;20061;-68
2022/04/15 09:59:27;;;;;;;11.05;5.75;;;;;;;13.79;63.82;102817.22;5014225;28;20065;-68
2022/04/15 10:01:55;;;;;;;7.85;5.47;;;;;;;13.82;62.79;102816.06;5007078;28;20119;-68
2022/04/15 10:04:25;;;;;;;9.05;6.70;;;;;;;13.89;63.15;102818.06;5017588;28;20033;-68
2022/04/15 10:06:52;;;;;;;8.10;5.75;;;;;;;13.93;63.16;102814.09;5020717;28;20029;-68
2022/04/15 10:09:18;;;;;;;8.48;6.07;;;;;;;14.01;62.91;102817.88;5010315;28;20040;-68
2022/04/15 10:11:45;;;;;;;7.82;5.65;;;;;;;14.05;62.27;102816.59;5014244;28;20499;-69
2022/04/15 10:14:12;;;;;;;9.18;5.85;;;;;;;14.12;62.30;102823.88;5007435;28;20045;-69
2022/04/15 10:16:39;;;;;;;8.15;5.68;;;;;;;14.16;61.88;102817.25;5005448;28;20765;-69
2022/04/15 10:19:05;;;;;;;6.93;5.60;;;;;;;14.11;61.53;102808.00;5005923;28;20029;-69
2022/04/15 10:21:34;;;;;;;10.00;5.82;;;;;;;14.06;61.01;102816.44;5011325;28;20065;-68
2022/04/15 10:24:01;;;;;;;7.10;5.77;;;;;;;14.02;60.36;102808.88;5015209;28;20037;-68
2022/04/15 10:26:32;;;;;;;7.47;5.55;;;;;;;14.22;61.01;102802.50;5016080;28;20290;-69
2022/04/15 10:29:03;;;;;;;7.82;5.80;;;;;;;14.55;61.40;102826.00;5008780;28;20040;-68
2022/04/15 10:31:37;;;;;;;8.32;5.70;;;;;;;14.54;60.51;102827.00;5007752;28;20058;-68
2022/04/15 10:34:11;;;;;;;7.35;5.90;;;;;;;14.52;60.12;102818.28;5008868;28;20025;-69
2022/04/15 10:36:37;;;;;;;6.53;5.65;;;;;;;14.59;60.22;102809.66;5008059;28;20052;-69
2022/04/15 10:39:06;;;;;;;10.15;5.47;;;;;;;14.71;60.09;102811.13;5007954;28;20025;-68
2022/04/15 10:41:44;;;;;;;8.60;6.10;;;;;;;14.87;59.49;102816.69;5011078;28;20489;-69
2022/04/15 10:44:39;;;;;;;6.68;5.70;;;;;;;14.98;59.18;102810.25;5009915;28;20040;-68
2022/04/15 10:47:17;;;;;;;9.13;6.22;;;;;;;15.01;59.18;102804.59;5018385;28;20073;-68
2022/04/15 10:50:06;;;;;;;9.93;5.72;;;;;;;15.06;58.55;102802.34;5012273;28;20057;-68
2022/04/15 10:52:36;;;;;;;11.00;5.82;;;;;;;15.12;58.52;102815.09;5002879;28;20242;-69
2022/04/15 10:55:11;;;;;;;8.30;5.60;;;;;;;15.11;58.24;102800.03;5007487;28;20129;-69
2022/04/15 10:57:40;;;;;;;12.43;6.00;;;;;;;15.23;58.21;102803.31;5011598;28;20025;-68
2022/04/15 11:03:01;;;;;;;10.80;4.72;;;;;;;15.36;57.13;102803.78;5012963;28;20284;-69
2022/04/15 11:05:42;;;;;;;6.68;5.10;;;;;;;15.45;57.48;102813.56;5007209;28;20037;-69
2022/04/15 11:08:12;;;;;;;7.25;5.05;;;;;;;15.44;57.02;102807.38;5003417;28;20097;-69
2022/04/15 11:10:55;;;;;;;5.82;5.00;;;;;;;15.59;56.78;102810.34;5013520;28;20021;-69
2022/04/15 11:13:32;;;;;;;10.45;5.18;;;;;;;15.57;56.27;102812.31;5008447;28;20485;-69
2022/04/15 11:16:04;;;;;;;7.97;5.05;;;;;;;15.65;55.96;102807.09;5017251;28;20071;-69
2022/04/15 11:18:55;;;;;;;8.88;4.63;;;;;;;15.85;55.92;102812.22;5007181;28;20042;-68
2022/04/15 11:21:29;;;;;;;5.82;4.60;;;;;;;15.80;55.04;102813.53;5002995;28;20040;-69
2022/04/15 11:24:00;;;;;;;6.45;4.13;;;;;;;15.78;54.78;102810.19;5007556;28;20041;-69